KTBR/TBR METAR and TAF weather

Enter ICAO airport designator
Station Type Date Time Source
KTBR METAR 2019/08/22 06:55 UTC NOAA

KTBR 220655Z AUTO 17004KT 10SM CLR 24/22 A3006 RMK AO2 T02370222


Station Type Date Time Source
KTBR Decoded METAR 2019/08/22 06:55 UTC NOAA

Station name not available
Aug 22, 2019 - 02:55 AM EDT / 2019.08.22 0655 UTC
Wind: from the S (170 degrees) at 5 MPH (4 KT):0
Visibility: 10 mile(s):0
Sky conditions: clear
Temperature: 74.7 F (23.7 C)
Dew Point: 72.0 F (22.2 C)
Relative Humidity: 91%
Pressure (altimeter): 30.06 in. Hg (1017 hPa)
ob: KTBR 220655Z AUTO 17004KT 10SM CLR 24/22 A3006 RMK AO2 T02370222
cycle: 7

Station Type Date Time Source
KTBR TAF UTC NOAA

Error!

Example: see airport list